Overseas Nikiski — WDBH — position and weather

sailwx.info

Track history (hours):
 
Tides and Currents Weather Stations Pressure Air Temp Water Temp Dewpoint Dewpoint Depression Visibility Wind Speed Wind Dir Waves Ship Positions

Overseas Nikiski

Owner: ASC Leasing VII, Philadelphia, PA. More information available from US FCC via Universal Licensing System and Coast Guard Vessel Documentation Center.

Last reported at 2018-Feb-17 15:20 UTC. Time now 2018-Feb-21 19:36 UTC.
Position N 27°49' W 097°26'.

Length 183 m; draft 8.2 m.

Type: Tanker. MMSI: 368445000.

Date/timePositionNaut miles runAvg speedWind from/ knotsBaromVisibWave heightAir tempDewpointWater temp
2018-Feb-17 15:20N 27°49' W 097°26'1 2.1
2018-Feb-17 14:59N 27°49' W 097°25'1 2.0
2018-Feb-17 14:30N 27°49' W 097°24'0 0.0
2018-Feb-16 00:55N 27°49' W 097°24'1 2.5
2018-Feb-16 00:29N 27°49' W 097°23'611.3
2018-Feb-15 23:58N 27°49' W 097°16'511.6
2018-Feb-15 23:30N 27°49' W 097°10'611.8
2018-Feb-15 22:57N 27°50' W 097°03'4 8.6
2018-Feb-15 22:28N 27°49' W 096°59'2 3.3
2018-Feb-15 21:59N 27°51' W 096°57'0 0.1
2018-Feb-15 21:29N 27°51' W 096°57'0 0.0
2018-Feb-15 20:59N 27°51' W 096°57'0 0.0
2018-Feb-15 20:29N 27°51' W 096°57'0 0.0
2018-Feb-15 19:59N 27°51' W 096°57'0 0.1
2018-Feb-15 19:29N 27°51' W 096°57'0 0.0
2018-Feb-15 18:59N 27°51' W 096°57'0 0.1
2018-Feb-15 18:29N 27°51' W 096°57'0 0.1
2018-Feb-15 17:59N 27°51' W 096°58'0 0.0
2018-Feb-15 17:29N 27°51' W 096°58'0 0.1
2018-Feb-15 16:56N 27°51' W 096°58'0 0.1
2018-Feb-15 16:29N 27°51' W 096°58'0 0.0
2018-Feb-15 15:59N 27°51' W 096°58'0 0.0
2018-Feb-15 15:29N 27°51' W 096°57'0 0.1
2018-Feb-15 14:59N 27°51' W 096°57'0 0.1
2018-Feb-15 14:29N 27°50' W 096°57'0 0.0
2018-Feb-15 13:56N 27°50' W 096°57'0 0.0
2018-Feb-15 13:29N 27°50' W 096°57'0 0.0
2018-Feb-15 12:59N 27°51' W 096°57'0 0.0
2018-Feb-15 12:26N 27°51' W 096°57'0 0.0
2018-Feb-15 11:59N 27°51' W 096°57'0 0.1
2018-Feb-15 11:29N 27°51' W 096°57'0 0.1
2018-Feb-15 10:59N 27°50' W 096°57'0 0.1
2018-Feb-15 10:26N 27°51' W 096°57'0 0.0
2018-Feb-15 09:56N 27°51' W 096°57'0 0.0
2018-Feb-15 09:29N 27°51' W 096°57'0 0.1
2018-Feb-15 08:59N 27°51' W 096°57'0 0.0
2018-Feb-15 08:26N 27°51' W 096°58'0 0.1
2018-Feb-15 07:59N 27°51' W 096°58'0 0.1
2018-Feb-15 07:29N 27°51' W 096°57'0 0.0
2018-Feb-15 06:56N 27°51' W 096°57'0 0.0
2018-Feb-15 06:23N 27°51' W 096°58'0 0.1
2018-Feb-15 05:59N 27°51' W 096°58'0 0.0
2018-Feb-15 05:29N 27°51' W 096°57'0 0.0
2018-Feb-15 04:59N 27°51' W 096°57'0 0.1
2018-Feb-15 04:29N 27°51' W 096°57'0 0.0
2018-Feb-15 03:59N 27°51' W 096°57'0 0.0
2018-Feb-15 03:26N 27°50' W 096°57'0 0.0
2018-Feb-15 02:56N 27°50' W 096°57'0 0.0
2018-Feb-15 02:29N 27°50' W 096°57'0 0.0
2018-Feb-15 01:59N 27°50' W 096°57'0 0.0
2018-Feb-15 01:29N 27°50' W 096°57'0 0.0
2018-Feb-15 00:59N 27°50' W 096°57'0 0.0
2018-Feb-15 00:29N 27°50' W 096°57'0 0.0
2018-Feb-14 23:59N 27°50' W 096°57'0 0.0
2018-Feb-14 23:29N 27°50' W 096°57'0 0.0
2018-Feb-14 22:59N 27°50' W 096°57'0 0.0
2018-Feb-14 22:29N 27°50' W 096°57'0 0.0
2018-Feb-14 21:59N 27°50' W 096°57'0 0.0
2018-Feb-14 21:29N 27°50' W 096°57'0 0.0
2018-Feb-14 20:59N 27°50' W 096°57'0 0.0
2018-Feb-14 20:29N 27°50' W 096°57'0 0.0
2018-Feb-14 19:59N 27°50' W 096°57'0 0.0
2018-Feb-14 19:29N 27°50' W 096°57'0 0.0
2018-Feb-14 18:59N 27°50' W 096°57'0 0.0
2018-Feb-14 18:29N 27°50' W 096°57'0 0.0
2018-Feb-14 17:59N 27°50' W 096°57'0 0.0
2018-Feb-14 17:29N 27°50' W 096°57'0 0.0
2018-Feb-14 16:59N 27°51' W 096°57'0 0.0
2018-Feb-14 16:29N 27°51' W 096°57'0 0.0
2018-Feb-14 15:59N 27°51' W 096°57'0 0.0
2018-Feb-14 15:29N 27°50' W 096°57'0 0.0
2018-Feb-14 14:56N 27°50' W 096°57'0 0.0
2018-Feb-14 14:29N 27°50' W 096°57'0 0.0
2018-Feb-14 13:59N 27°50' W 096°57'0 0.0
2018-Feb-14 13:29N 27°50' W 096°57'0 0.0
2018-Feb-14 12:59N 27°50' W 096°57'0 0.0
2018-Feb-14 12:29N 27°50' W 096°57'0 0.0
2018-Feb-14 11:59N 27°50' W 096°57'0 0.0
2018-Feb-14 11:29N 27°50' W 096°57'0 0.0
2018-Feb-14 10:59N 27°50' W 096°57'0 0.0
2018-Feb-14 10:29N 27°50' W 096°57'0 0.0
2018-Feb-14 09:59N 27°50' W 096°57'0 0.0
2018-Feb-14 09:29N 27°50' W 096°57'0 0.0
2018-Feb-14 08:59N 27°50' W 096°57'0 0.0
2018-Feb-14 08:29N 27°50' W 096°57'0 0.0
2018-Feb-14 07:59N 27°50' W 096°57'0 0.0
2018-Feb-14 07:29N 27°50' W 096°57'0 0.0
2018-Feb-14 06:59N 27°50' W 096°57'0 0.0
2018-Feb-14 06:29N 27°50' W 096°57'0 0.0
2018-Feb-14 05:59N 27°50' W 096°57'0 0.0
2018-Feb-14 05:29N 27°50' W 096°57'0 0.0
2018-Feb-14 04:59N 27°50' W 096°57'0 0.0
2018-Feb-14 04:29N 27°50' W 096°57'0 0.0
2018-Feb-14 03:59N 27°50' W 096°57'0 0.0
2018-Feb-14 03:29N 27°50' W 096°57'0 0.0
2018-Feb-14 02:59N 27°50' W 096°57'0 0.0
2018-Feb-14 02:29N 27°50' W 096°57'0 0.0
2018-Feb-14 01:59N 27°50' W 096°57'0 0.0
2018-Feb-14 01:29N 27°50' W 096°57'0 0.0
2018-Feb-14 00:59N 27°50' W 096°57'0 0.0
2018-Feb-14 00:29N 27°50' W 096°57'0 0.0
2018-Feb-13 23:59N 27°50' W 096°57'0 0.0
2018-Feb-13 23:29N 27°50' W 096°57'0 0.0
2018-Feb-13 22:59N 27°50' W 096°57'0 0.1
2018-Feb-13 22:29N 27°51' W 096°57'0 0.0
2018-Feb-13 21:59N 27°50' W 096°57'0 0.0
2018-Feb-13 21:29N 27°50' W 096°57'0 0.0
2018-Feb-13 20:59N 27°50' W 096°57'0 0.0
2018-Feb-13 20:29N 27°50' W 096°57'0 0.0
2018-Feb-13 19:59N 27°50' W 096°57'0 0.0
2018-Feb-13 19:29N 27°50' W 096°57'0 0.0
2018-Feb-13 18:59N 27°50' W 096°57'0 0.0
2018-Feb-13 18:29N 27°50' W 096°57'0 0.0
2018-Feb-13 17:59N 27°50' W 096°57'0 0.0
2018-Feb-13 17:29N 27°50' W 096°57'0 0.0
2018-Feb-13 16:59N 27°50' W 096°57'0 0.0
2018-Feb-13 16:29N 27°50' W 096°57'0 0.0
2018-Feb-13 15:59N 27°50' W 096°57'0 0.0
2018-Feb-13 15:29N 27°50' W 096°57'0 0.0
2018-Feb-13 14:59N 27°50' W 096°57'0 0.0
2018-Feb-13 14:29N 27°50' W 096°57'0 0.0
2018-Feb-13 13:59N 27°50' W 096°57'0 0.0
2018-Feb-13 13:29N 27°50' W 096°57'0 0.0
2018-Feb-13 12:59N 27°50' W 096°57'0 0.0
2018-Feb-13 12:29N 27°50' W 096°57'0 0.0
2018-Feb-13 11:59N 27°50' W 096°57'0 0.0
2018-Feb-13 11:29N 27°50' W 096°57'0 0.1
2018-Feb-13 10:56N 27°50' W 096°57'0 0.0
2018-Feb-13 10:29N 27°50' W 096°57'0 0.0
2018-Feb-13 09:59N 27°50' W 096°57'0 0.0
2018-Feb-13 09:29N 27°50' W 096°57'0 0.0
2018-Feb-13 08:59N 27°50' W 096°57'0 0.0
2018-Feb-13 08:29N 27°50' W 096°57'0 0.0
2018-Feb-13 07:56N 27°50' W 096°57'0 0.0
2018-Feb-13 07:29N 27°50' W 096°57'0 0.0
2018-Feb-13 06:59N 27°50' W 096°57'0 0.0
2018-Feb-13 06:29N 27°50' W 096°57'0 0.1
2018-Feb-13 05:59N 27°50' W 096°57'0 0.0
2018-Feb-13 05:26N 27°50' W 096°57'0 0.0
2018-Feb-13 04:59N 27°50' W 096°57'0 0.0
2018-Feb-13 04:29N 27°50' W 096°57'0 0.0
2018-Feb-13 03:59N 27°50' W 096°57'0 0.0
2018-Feb-13 03:29N 27°50' W 096°57'0 0.0
2018-Feb-13 02:59N 27°50' W 096°57'0 0.0
2018-Feb-13 02:29N 27°50' W 096°57'0 0.0
2018-Feb-13 01:59N 27°50' W 096°57'0 0.0
2018-Feb-13 01:29N 27°50' W 096°57'0 0.0
2018-Feb-13 00:59N 27°50' W 096°57'0 0.0
2018-Feb-13 00:29N 27°50' W 096°57'0 0.0
2018-Feb-12 23:59N 27°50' W 096°57'0 0.0
2018-Feb-12 23:29N 27°50' W 096°57'0 0.0
2018-Feb-12 22:59N 27°50' W 096°57'0 0.0
2018-Feb-12 22:29N 27°50' W 096°57'0 0.0
2018-Feb-12 21:59N 27°50' W 096°57'0 0.0
2018-Feb-12 21:29N 27°50' W 096°57'0 0.0
2018-Feb-12 20:59N 27°50' W 096°57'0 0.0
2018-Feb-12 20:29N 27°50' W 096°57'0 0.0
2018-Feb-12 19:59N 27°50' W 096°57'0 0.0
2018-Feb-12 19:29N 27°50' W 096°57'0 0.0
2018-Feb-12 18:59N 27°50' W 096°57'0 0.0
2018-Feb-12 18:29N 27°50' W 096°57'0 0.0
2018-Feb-12 17:59N 27°50' W 096°57'0 0.0
2018-Feb-12 17:29N 27°50' W 096°57'0 0.0
2018-Feb-12 16:59N 27°50' W 096°57'0 0.0
2018-Feb-12 16:29N 27°50' W 096°57'0 0.0
2018-Feb-12 15:59N 27°50' W 096°57'0 0.0
2018-Feb-12 15:17N 27°50' W 096°57'0 0.0
2018-Feb-12 14:59N 27°50' W 096°57'0 0.0
2018-Feb-12 14:29N 27°50' W 096°57'  
2018-Feb-09 00:00N 24°30' W 083°54'30 9.9 090 / 161023.410.8 22.017.220.0
2018-Feb-08 21:00N 24°18' W 083°24'194 9.9 070 / 151022.610.8 23.021.522.0
2018-Feb-08 01:27N 25°21' W 080°02'4 9.1
2018-Feb-08 01:01N 25°25' W 080°02'2135.7
2018-Feb-08 01:00N 25°24' W 080°00'613.1 070 / 51025.610.8 23.016.522.0
2018-Feb-08 00:30N 25°30' W 080°02'510.0
2018-Feb-08 00:01N 25°35' W 080°02'5 9.6
2018-Feb-07 23:30N 25°40' W 080°02'511.0
2018-Feb-07 23:00N 25°45' W 080°02'510.2
2018-Feb-07 22:30N 25°50' W 080°02'510.2
2018-Feb-07 22:01N 25°56' W 080°02'511.1
2018-Feb-07 21:31N 26°01' W 080°03'  
Track history (hours):
 
Tides and Currents Weather Stations Pressure Air Temp Water Temp Dewpoint Dewpoint Depression Visibility Wind Speed Wind Dir Waves Ship Positions

Overseas Nikiski

Owner: ASC Leasing VII, Philadelphia, PA. More information available from US FCC via Universal Licensing System and Coast Guard Vessel Documentation Center.

Last reported at 2018-Feb-17 15:20 UTC. Time now 2018-Feb-21 19:36 UTC.
Position N 27°49' W 097°26'.

Length 183 m; draft 8.2 m.

Type: Tanker. MMSI: 368445000.

Date/timePositionNaut miles runAvg speedWind from/ knotsBaromVisibWave heightAir tempDewpointWater temp
2018-Feb-17 15:20N 27°49' W 097°26'1 2.1
2018-Feb-17 14:59N 27°49' W 097°25'1 2.0
2018-Feb-17 14:30N 27°49' W 097°24'0 0.0
2018-Feb-16 00:55N 27°49' W 097°24'1 2.5
2018-Feb-16 00:29N 27°49' W 097°23'611.3
2018-Feb-15 23:58N 27°49' W 097°16'511.6
2018-Feb-15 23:30N 27°49' W 097°10'611.8
2018-Feb-15 22:57N 27°50' W 097°03'4 8.6
2018-Feb-15 22:28N 27°49' W 096°59'2 3.3
2018-Feb-15 21:59N 27°51' W 096°57'0 0.1
2018-Feb-15 21:29N 27°51' W 096°57'0 0.0
2018-Feb-15 20:59N 27°51' W 096°57'0 0.0
2018-Feb-15 20:29N 27°51' W 096°57'0 0.0
2018-Feb-15 19:59N 27°51' W 096°57'0 0.1
2018-Feb-15 19:29N 27°51' W 096°57'0 0.0
2018-Feb-15 18:59N 27°51' W 096°57'0 0.1
2018-Feb-15 18:29N 27°51' W 096°57'0 0.1
2018-Feb-15 17:59N 27°51' W 096°58'0 0.0
2018-Feb-15 17:29N 27°51' W 096°58'0 0.1
2018-Feb-15 16:56N 27°51' W 096°58'0 0.1
2018-Feb-15 16:29N 27°51' W 096°58'0 0.0
2018-Feb-15 15:59N 27°51' W 096°58'0 0.0
2018-Feb-15 15:29N 27°51' W 096°57'0 0.1
2018-Feb-15 14:59N 27°51' W 096°57'0 0.1
2018-Feb-15 14:29N 27°50' W 096°57'0 0.0
2018-Feb-15 13:56N 27°50' W 096°57'0 0.0
2018-Feb-15 13:29N 27°50' W 096°57'0 0.0
2018-Feb-15 12:59N 27°51' W 096°57'0 0.0
2018-Feb-15 12:26N 27°51' W 096°57'0 0.0
2018-Feb-15 11:59N 27°51' W 096°57'0 0.1
2018-Feb-15 11:29N 27°51' W 096°57'0 0.1
2018-Feb-15 10:59N 27°50' W 096°57'0 0.1
2018-Feb-15 10:26N 27°51' W 096°57'0 0.0
2018-Feb-15 09:56N 27°51' W 096°57'0 0.0
2018-Feb-15 09:29N 27°51' W 096°57'0 0.1
2018-Feb-15 08:59N 27°51' W 096°57'0 0.0
2018-Feb-15 08:26N 27°51' W 096°58'0 0.1
2018-Feb-15 07:59N 27°51' W 096°58'0 0.1
2018-Feb-15 07:29N 27°51' W 096°57'0 0.0
2018-Feb-15 06:56N 27°51' W 096°57'0 0.0
2018-Feb-15 06:23N 27°51' W 096°58'0 0.1
2018-Feb-15 05:59N 27°51' W 096°58'0 0.0
2018-Feb-15 05:29N 27°51' W 096°57'0 0.0
2018-Feb-15 04:59N 27°51' W 096°57'0 0.1
2018-Feb-15 04:29N 27°51' W 096°57'0 0.0
2018-Feb-15 03:59N 27°51' W 096°57'0 0.0
2018-Feb-15 03:26N 27°50' W 096°57'0 0.0
2018-Feb-15 02:56N 27°50' W 096°57'0 0.0
2018-Feb-15 02:29N 27°50' W 096°57'0 0.0
2018-Feb-15 01:59N 27°50' W 096°57'0 0.0
2018-Feb-15 01:29N 27°50' W 096°57'0 0.0
2018-Feb-15 00:59N 27°50' W 096°57'0 0.0
2018-Feb-15 00:29N 27°50' W 096°57'0 0.0
2018-Feb-14 23:59N 27°50' W 096°57'0 0.0
2018-Feb-14 23:29N 27°50' W 096°57'0 0.0
2018-Feb-14 22:59N 27°50' W 096°57'0 0.0
2018-Feb-14 22:29N 27°50' W 096°57'0 0.0
2018-Feb-14 21:59N 27°50' W 096°57'0 0.0
2018-Feb-14 21:29N 27°50' W 096°57'0 0.0
2018-Feb-14 20:59N 27°50' W 096°57'0 0.0
2018-Feb-14 20:29N 27°50' W 096°57'0 0.0
2018-Feb-14 19:59N 27°50' W 096°57'0 0.0
2018-Feb-14 19:29N 27°50' W 096°57'0 0.0
2018-Feb-14 18:59N 27°50' W 096°57'0 0.0
2018-Feb-14 18:29N 27°50' W 096°57'0 0.0
2018-Feb-14 17:59N 27°50' W 096°57'0 0.0
2018-Feb-14 17:29N 27°50' W 096°57'0 0.0
2018-Feb-14 16:59N 27°51' W 096°57'0 0.0
2018-Feb-14 16:29N 27°51' W 096°57'0 0.0
2018-Feb-14 15:59N 27°51' W 096°57'0 0.0
2018-Feb-14 15:29N 27°50' W 096°57'0 0.0
2018-Feb-14 14:56N 27°50' W 096°57'0 0.0
2018-Feb-14 14:29N 27°50' W 096°57'0 0.0
2018-Feb-14 13:59N 27°50' W 096°57'0 0.0
2018-Feb-14 13:29N 27°50' W 096°57'0 0.0
2018-Feb-14 12:59N 27°50' W 096°57'0 0.0
2018-Feb-14 12:29N 27°50' W 096°57'0 0.0
2018-Feb-14 11:59N 27°50' W 096°57'0 0.0
2018-Feb-14 11:29N 27°50' W 096°57'0 0.0
2018-Feb-14 10:59N 27°50' W 096°57'0 0.0
2018-Feb-14 10:29N 27°50' W 096°57'0 0.0
2018-Feb-14 09:59N 27°50' W 096°57'0 0.0
2018-Feb-14 09:29N 27°50' W 096°57'0 0.0
2018-Feb-14 08:59N 27°50' W 096°57'0 0.0
2018-Feb-14 08:29N 27°50' W 096°57'0 0.0
2018-Feb-14 07:59N 27°50' W 096°57'0 0.0
2018-Feb-14 07:29N 27°50' W 096°57'0 0.0
2018-Feb-14 06:59N 27°50' W 096°57'0 0.0
2018-Feb-14 06:29N 27°50' W 096°57'0 0.0
2018-Feb-14 05:59N 27°50' W 096°57'0 0.0
2018-Feb-14 05:29N 27°50' W 096°57'0 0.0
2018-Feb-14 04:59N 27°50' W 096°57'0 0.0
2018-Feb-14 04:29N 27°50' W 096°57'0 0.0
2018-Feb-14 03:59N 27°50' W 096°57'0 0.0
2018-Feb-14 03:29N 27°50' W 096°57'0 0.0
2018-Feb-14 02:59N 27°50' W 096°57'0 0.0
2018-Feb-14 02:29N 27°50' W 096°57'0 0.0
2018-Feb-14 01:59N 27°50' W 096°57'0 0.0
2018-Feb-14 01:29N 27°50' W 096°57'0 0.0
2018-Feb-14 00:59N 27°50' W 096°57'0 0.0
2018-Feb-14 00:29N 27°50' W 096°57'0 0.0
2018-Feb-13 23:59N 27°50' W 096°57'0 0.0
2018-Feb-13 23:29N 27°50' W 096°57'0 0.0
2018-Feb-13 22:59N 27°50' W 096°57'0 0.1
2018-Feb-13 22:29N 27°51' W 096°57'0 0.0
2018-Feb-13 21:59N 27°50' W 096°57'0 0.0
2018-Feb-13 21:29N 27°50' W 096°57'0 0.0
2018-Feb-13 20:59N 27°50' W 096°57'0 0.0
2018-Feb-13 20:29N 27°50' W 096°57'0 0.0
2018-Feb-13 19:59N 27°50' W 096°57'0 0.0
2018-Feb-13 19:29N 27°50' W 096°57'0 0.0
2018-Feb-13 18:59N 27°50' W 096°57'0 0.0
2018-Feb-13 18:29N 27°50' W 096°57'0 0.0
2018-Feb-13 17:59N 27°50' W 096°57'0 0.0
2018-Feb-13 17:29N 27°50' W 096°57'0 0.0
2018-Feb-13 16:59N 27°50' W 096°57'0 0.0
2018-Feb-13 16:29N 27°50' W 096°57'0 0.0
2018-Feb-13 15:59N 27°50' W 096°57'0 0.0
2018-Feb-13 15:29N 27°50' W 096°57'0 0.0
2018-Feb-13 14:59N 27°50' W 096°57'0 0.0
2018-Feb-13 14:29N 27°50' W 096°57'0 0.0
2018-Feb-13 13:59N 27°50' W 096°57'0 0.0
2018-Feb-13 13:29N 27°50' W 096°57'0 0.0
2018-Feb-13 12:59N 27°50' W 096°57'0 0.0
2018-Feb-13 12:29N 27°50' W 096°57'0 0.0
2018-Feb-13 11:59N 27°50' W 096°57'0 0.0
2018-Feb-13 11:29N 27°50' W 096°57'0 0.1
2018-Feb-13 10:56N 27°50' W 096°57'0 0.0
2018-Feb-13 10:29N 27°50' W 096°57'0 0.0
2018-Feb-13 09:59N 27°50' W 096°57'0 0.0
2018-Feb-13 09:29N 27°50' W 096°57'0 0.0
2018-Feb-13 08:59N 27°50' W 096°57'0 0.0
2018-Feb-13 08:29N 27°50' W 096°57'0 0.0
2018-Feb-13 07:56N 27°50' W 096°57'0 0.0
2018-Feb-13 07:29N 27°50' W 096°57'0 0.0
2018-Feb-13 06:59N 27°50' W 096°57'0 0.0
2018-Feb-13 06:29N 27°50' W 096°57'0 0.1
2018-Feb-13 05:59N 27°50' W 096°57'0 0.0
2018-Feb-13 05:26N 27°50' W 096°57'0 0.0
2018-Feb-13 04:59N 27°50' W 096°57'0 0.0
2018-Feb-13 04:29N 27°50' W 096°57'0 0.0
2018-Feb-13 03:59N 27°50' W 096°57'0 0.0
2018-Feb-13 03:29N 27°50' W 096°57'0 0.0
2018-Feb-13 02:59N 27°50' W 096°57'0 0.0
2018-Feb-13 02:29N 27°50' W 096°57'0 0.0
2018-Feb-13 01:59N 27°50' W 096°57'0 0.0
2018-Feb-13 01:29N 27°50' W 096°57'0 0.0
2018-Feb-13 00:59N 27°50' W 096°57'0 0.0
2018-Feb-13 00:29N 27°50' W 096°57'0 0.0
2018-Feb-12 23:59N 27°50' W 096°57'0 0.0
2018-Feb-12 23:29N 27°50' W 096°57'0 0.0
2018-Feb-12 22:59N 27°50' W 096°57'0 0.0
2018-Feb-12 22:29N 27°50' W 096°57'0 0.0
2018-Feb-12 21:59N 27°50' W 096°57'0 0.0
2018-Feb-12 21:29N 27°50' W 096°57'0 0.0
2018-Feb-12 20:59N 27°50' W 096°57'0 0.0
2018-Feb-12 20:29N 27°50' W 096°57'0 0.0
2018-Feb-12 19:59N 27°50' W 096°57'0 0.0
2018-Feb-12 19:29N 27°50' W 096°57'0 0.0
2018-Feb-12 18:59N 27°50' W 096°57'0 0.0
2018-Feb-12 18:29N 27°50' W 096°57'0 0.0
2018-Feb-12 17:59N 27°50' W 096°57'0 0.0
2018-Feb-12 17:29N 27°50' W 096°57'0 0.0
2018-Feb-12 16:59N 27°50' W 096°57'0 0.0
2018-Feb-12 16:29N 27°50' W 096°57'0 0.0
2018-Feb-12 15:59N 27°50' W 096°57'0 0.0
2018-Feb-12 15:17N 27°50' W 096°57'0 0.0
2018-Feb-12 14:59N 27°50' W 096°57'0 0.0
2018-Feb-12 14:29N 27°50' W 096°57'  
2018-Feb-09 00:00N 24°30' W 083°54'30 9.9 090 / 161023.410.8 22.017.220.0
2018-Feb-08 21:00N 24°18' W 083°24'194 9.9 070 / 151022.610.8 23.021.522.0
2018-Feb-08 01:27N 25°21' W 080°02'4 9.1
2018-Feb-08 01:01N 25°25' W 080°02'2135.7
2018-Feb-08 01:00N 25°24' W 080°00'613.1 070 / 51025.610.8 23.016.522.0
2018-Feb-08 00:30N 25°30' W 080°02'510.0
2018-Feb-08 00:01N 25°35' W 080°02'5 9.6
2018-Feb-07 23:30N 25°40' W 080°02'511.0
2018-Feb-07 23:00N 25°45' W 080°02'510.2
2018-Feb-07 22:30N 25°50' W 080°02'510.2
2018-Feb-07 22:01N 25°56' W 080°02'511.1
2018-Feb-07 21:31N 26°01' W 080°03'  

Dump ship's entire track history